createdAt,value
2024-01-07T00:01:22.656Z,9.13
2024-01-07T00:04:10.237Z,8.57
2024-01-07T00:17:34.401Z,8.32
2024-01-07T00:20:54.639Z,8.63
2024-01-07T00:27:20.943Z,7.20
2024-01-07T00:30:59.730Z,7.13
2024-01-07T00:34:10.029Z,7.05
2024-01-07T00:40:44.162Z,7.22
2024-01-07T00:43:47.662Z,8.23
2024-01-07T00:49:49.665Z,7.32
2024-01-07T00:53:02.519Z,6.47
2024-01-07T01:06:07.249Z,6.68
2024-01-07T01:17:50.183Z,7.15
2024-01-07T01:24:02.655Z,8.02
2024-01-07T01:27:09.515Z,8.38
2024-01-07T01:37:09.396Z,7.38
2024-01-07T01:40:20.952Z,8.25
2024-01-07T01:46:18.173Z,7.97
2024-01-07T01:49:04.675Z,8.80
2024-01-07T01:51:44.269Z,8.30
2024-01-07T01:54:45.475Z,9.27
2024-01-07T01:58:33.393Z,8.70
2024-01-07T02:04:13.069Z,9.20
2024-01-07T02:06:55.782Z,9.88
2024-01-07T02:09:45.216Z,8.95
2024-01-07T02:12:35.011Z,9.70
2024-01-07T02:15:14.576Z,9.00
2024-01-07T02:17:56.084Z,9.68
2024-01-07T02:20:25.371Z,9.65
2024-01-07T02:23:10.898Z,9.25
2024-01-07T02:25:56.787Z,10.10
2024-01-07T02:28:37.158Z,10.05
2024-01-07T02:34:08.203Z,10.30
2024-01-07T02:37:13.913Z,10.23
2024-01-07T02:40:01.563Z,9.55
2024-01-07T02:42:34.554Z,10.93
2024-01-07T02:45:04.579Z,9.13
2024-01-07T02:47:45.376Z,10.38
2024-01-07T02:50:15.004Z,9.35
2024-01-07T02:53:04.145Z,10.05
2024-01-07T02:55:30.934Z,9.70
2024-01-07T02:58:00.602Z,10.82
2024-01-07T03:00:49.591Z,9.82
2024-01-07T03:03:21.299Z,10.60
2024-01-07T03:05:48.317Z,9.85
2024-01-07T03:08:23.915Z,9.32
2024-01-07T03:10:58.036Z,8.60
2024-01-07T03:13:27.841Z,8.52
2024-01-07T03:15:59.261Z,10.30
2024-01-07T03:18:29.719Z,9.23
2024-01-07T03:20:58.900Z,8.32
2024-01-07T03:23:30.620Z,9.32
2024-01-07T03:26:06.943Z,8.30
2024-01-07T03:28:36.356Z,8.45
2024-01-07T03:31:20.560Z,9.90
2024-01-07T03:33:47.588Z,9.80
2024-01-07T03:36:17.730Z,9.00
2024-01-07T03:38:46.467Z,9.82
2024-01-07T03:41:22.726Z,8.30
2024-01-07T03:43:55.192Z,9.40
2024-01-07T03:46:22.344Z,9.70
2024-01-07T03:48:49.472Z,8.55
2024-01-07T03:51:19.758Z,9.77
2024-01-07T03:53:58.935Z,8.90
2024-01-07T03:56:32.267Z,9.07
2024-01-07T03:59:04.754Z,9.75
2024-01-07T04:04:09.700Z,8.90
2024-01-07T04:06:45.545Z,9.30
2024-01-07T04:09:15.307Z,10.38
2024-01-07T04:11:43.620Z,8.98
2024-01-07T04:14:10.561Z,9.35
2024-01-07T04:16:42.598Z,9.88
2024-01-07T04:19:12.030Z,9.80
2024-01-07T04:21:45.952Z,9.50
2024-01-07T04:24:12.608Z,10.68
2024-01-07T04:26:39.529Z,10.50
2024-01-07T04:29:06.440Z,11.02
2024-01-07T04:31:35.300Z,10.60
2024-01-07T04:34:04.428Z,9.98
2024-01-07T04:36:31.357Z,9.43
2024-01-07T04:39:01.180Z,10.60
2024-01-07T04:41:28.120Z,10.63
2024-01-07T04:43:56.196Z,11.05
2024-01-07T04:46:35.407Z,9.77
2024-01-07T04:51:53.914Z,9.00
2024-01-07T04:54:26.213Z,9.77
2024-01-07T04:56:55.788Z,10.23
2024-01-07T04:59:25.195Z,9.05
2024-01-07T05:02:01.966Z,9.25
2024-01-07T05:04:33.298Z,9.77
2024-01-07T05:07:03.092Z,8.18
2024-01-07T05:09:35.870Z,8.68
2024-01-07T05:12:02.520Z,8.57
2024-01-07T05:14:34.992Z,7.65
2024-01-07T05:19:43.576Z,7.50
2024-01-07T05:22:17.932Z,7.20
2024-01-07T05:24:48.570Z,7.88
2024-01-07T05:27:15.390Z,7.35
2024-01-07T05:29:47.380Z,8.38
2024-01-07T05:32:18.769Z,7.75
2024-01-07T05:34:45.472Z,7.80
2024-01-07T05:37:17.739Z,8.13
2024-01-07T05:39:44.622Z,6.93
2024-01-07T05:42:14.251Z,7.10
2024-01-07T05:44:41.752Z,6.97
2024-01-07T05:47:11.759Z,7.78
2024-01-07T05:49:43.405Z,7.82
2024-01-07T05:52:10.101Z,7.82
2024-01-07T05:54:39.894Z,7.88
2024-01-07T05:57:11.446Z,6.85
2024-01-07T05:59:38.515Z,7.75
2024-01-07T06:02:05.309Z,7.45
2024-01-07T06:04:32.193Z,7.28
2024-01-07T06:07:04.179Z,7.95
2024-01-07T06:09:31.059Z,8.30
2024-01-07T06:12:01.664Z,8.15
2024-01-07T06:14:39.603Z,8.10
2024-01-07T06:17:11.415Z,7.47
2024-01-07T06:19:38.463Z,7.65
2024-01-07T06:22:07.873Z,8.18
2024-01-07T06:24:40.561Z,8.07
2024-01-07T06:27:08.850Z,7.72
2024-01-07T06:29:35.602Z,7.78
2024-01-07T06:32:02.746Z,7.05
2024-01-07T06:34:29.727Z,6.60
2024-01-07T06:36:56.457Z,7.18
2024-01-07T06:39:28.676Z,7.00
2024-01-07T06:41:56.038Z,7.18
2024-01-07T06:44:22.826Z,6.65
2024-01-07T06:46:49.519Z,6.88
2024-01-07T06:49:19.120Z,6.47
2024-01-07T06:51:47.353Z,6.85
2024-01-07T06:54:15.307Z,7.57
2024-01-07T06:56:42.218Z,7.75
2024-01-07T06:59:14.563Z,6.78
2024-01-07T07:01:44.218Z,6.70
2024-01-07T07:04:13.954Z,7.80
2024-01-07T07:06:43.621Z,8.10
2024-01-07T07:09:15.386Z,7.63
2024-01-07T07:11:42.453Z,7.25
2024-01-07T07:14:19.498Z,8.05
2024-01-07T07:16:45.948Z,7.90
2024-01-07T07:19:15.775Z,8.13
2024-01-07T07:21:42.408Z,7.85
2024-01-07T07:26:37.082Z,7.30
2024-01-07T07:29:05.925Z,7.07
2024-01-07T07:34:41.137Z,7.72
2024-01-07T07:37:07.861Z,7.80
2024-01-07T07:39:40.217Z,7.35
2024-01-07T07:42:06.986Z,7.30
2024-01-07T07:44:33.426Z,7.05
2024-01-07T07:47:25.406Z,7.47
2024-01-07T07:49:52.287Z,7.68
2024-01-07T07:52:23.260Z,7.63
2024-01-07T07:54:50.643Z,6.82
2024-01-07T07:57:23.246Z,6.90
2024-01-07T08:00:26.349Z,7.63
2024-01-07T08:06:12.325Z,6.60
2024-01-07T08:08:57.896Z,6.18
2024-01-07T08:12:03.641Z,5.82
2024-01-07T08:28:52.558Z,6.57
2024-01-07T08:34:53.730Z,6.30
2024-01-07T13:44:38.855Z,0.85
2024-01-07T13:47:29.428Z,1.40
2024-01-07T14:10:06.439Z,1.10
2024-01-07T15:04:29.002Z,1.63
2024-01-07T16:44:40.245Z,2.00
2024-01-07T16:54:38.233Z,2.53
2024-01-07T17:22:52.903Z,2.88
2024-01-07T17:28:42.674Z,2.97
2024-01-07T17:31:27.097Z,3.92
2024-01-07T17:34:47.727Z,3.90
2024-01-07T17:38:00.691Z,3.30
2024-01-07T17:49:50.772Z,3.65
2024-01-07T17:52:28.467Z,3.35
2024-01-07T17:54:57.888Z,3.17
2024-01-07T18:01:31.842Z,2.83
2024-01-07T18:14:18.372Z,2.92
2024-01-07T18:45:13.457Z,3.67
2024-01-07T21:01:40.508Z,2.75
